createdAt,value
2022-08-19T00:02:14.208Z,12.32
2022-08-19T00:09:18.475Z,13.07
2022-08-19T00:16:26.509Z,14.20
2022-08-19T00:23:29.286Z,14.45
2022-08-19T00:30:31.623Z,14.77
2022-08-19T00:37:36.217Z,14.32
2022-08-19T00:44:39.183Z,14.90
2022-08-19T00:51:41.409Z,14.88
2022-08-19T00:58:45.125Z,14.38
2022-08-19T01:05:47.543Z,15.25
2022-08-19T01:12:49.979Z,15.23
2022-08-19T01:19:53.730Z,15.07
2022-08-19T01:26:57.535Z,15.27
2022-08-19T01:34:00.386Z,15.05
2022-08-19T01:41:02.765Z,15.38
2022-08-19T01:55:18.044Z,15.70
2022-08-19T02:02:20.367Z,16.38
2022-08-19T02:09:24.289Z,17.40
2022-08-19T02:16:26.562Z,17.33
2022-08-19T02:23:28.967Z,16.55
2022-08-19T02:30:32.743Z,16.98
2022-08-19T02:37:54.014Z,18.95
2022-08-19T02:44:56.627Z,17.95
2022-08-19T02:52:00.290Z,17.77
2022-08-19T02:59:02.795Z,17.17
2022-08-19T03:06:07.563Z,17.05
2022-08-19T03:13:14.108Z,16.52
2022-08-19T03:20:16.718Z,17.10
2022-08-19T03:27:19.125Z,18.70
2022-08-19T03:34:27.126Z,17.48
2022-08-19T03:41:34.391Z,18.15
2022-08-19T03:48:47.833Z,18.20
2022-08-19T03:55:51.656Z,18.67
2022-08-19T04:02:53.964Z,19.25
2022-08-19T04:10:01.398Z,17.80
2022-08-19T04:17:07.966Z,17.70
2022-08-19T04:24:12.327Z,18.17
2022-08-19T04:31:15.134Z,16.48
2022-08-19T04:38:19.839Z,17.92
2022-08-19T04:45:22.979Z,18.02
2022-08-19T04:52:25.633Z,18.77
2022-08-19T04:59:29.268Z,19.77
2022-08-19T05:06:34.312Z,18.85
2022-08-19T05:13:36.555Z,19.08
2022-08-19T05:20:58.622Z,21.02
2022-08-19T05:28:00.848Z,20.77
2022-08-19T05:35:03.548Z,20.90
2022-08-19T05:42:08.842Z,20.77
2022-08-19T05:49:11.264Z,20.73
2022-08-19T05:56:15.676Z,20.60
2022-08-19T06:03:19.227Z,21.15
2022-08-19T06:10:22.646Z,21.60
2022-08-19T06:17:26.512Z,20.80
2022-08-19T06:24:34.692Z,22.95
2022-08-19T06:31:41.974Z,22.77
2022-08-19T06:38:44.443Z,23.50
2022-08-19T06:45:49.507Z,24.17
2022-08-19T06:52:51.859Z,22.77
2022-08-19T06:59:57.304Z,24.83
2022-08-19T07:07:19.762Z,23.95
2022-08-19T07:14:26.092Z,25.38
2022-08-19T07:21:31.513Z,23.67
2022-08-19T07:28:46.045Z,22.83
2022-08-19T07:35:56.328Z,24.67
2022-08-19T07:42:58.590Z,23.42
2022-08-19T07:50:02.174Z,25.52
2022-08-19T07:57:04.820Z,24.40
2022-08-19T08:04:25.728Z,24.02
2022-08-19T08:11:31.671Z,23.73
2022-08-19T08:18:34.150Z,23.55
2022-08-19T08:25:36.746Z,22.58
2022-08-19T08:32:40.452Z,23.77
2022-08-19T08:39:45.970Z,24.52
2022-08-19T08:46:52.883Z,24.05
2022-08-19T08:53:57.009Z,24.30
2022-08-19T09:00:59.383Z,23.35
2022-08-19T09:08:03.594Z,25.38
2022-08-19T09:15:09.485Z,25.00
2022-08-19T09:22:11.924Z,23.20
2022-08-19T09:29:14.141Z,23.88
2022-08-19T09:36:23.499Z,25.05
2022-08-19T09:43:44.507Z,24.20
2022-08-19T09:50:52.387Z,24.43
2022-08-19T09:57:58.533Z,24.58
2022-08-19T10:05:26.612Z,25.55
2022-08-19T10:12:29.277Z,24.77
2022-08-19T10:19:37.015Z,23.70
2022-08-19T10:26:42.507Z,22.58
2022-08-19T10:33:53.936Z,22.00
2022-08-19T10:40:58.146Z,22.25
2022-08-19T10:48:00.375Z,21.90
2022-08-19T10:55:21.270Z,21.48
2022-08-19T11:02:27.019Z,23.63
2022-08-19T11:09:34.069Z,24.30
2022-08-19T11:16:37.208Z,26.58
2022-08-19T11:23:40.903Z,27.15
2022-08-19T11:30:45.539Z,27.48
2022-08-19T11:37:47.790Z,29.35
2022-08-19T11:44:51.426Z,30.52
2022-08-19T11:51:54.493Z,29.50
2022-08-19T11:58:57.757Z,30.92
2022-08-19T12:06:03.790Z,30.80
2022-08-19T12:13:06.382Z,31.65
2022-08-19T12:20:10.393Z,31.15
2022-08-19T12:27:14.305Z,27.98
2022-08-19T12:34:34.874Z,28.15
2022-08-19T12:41:37.619Z,27.40
2022-08-19T12:48:56.192Z,27.20
2022-08-19T12:55:58.709Z,29.60
2022-08-19T13:03:01.300Z,27.27
2022-08-19T13:10:06.365Z,28.02
2022-08-19T13:17:09.247Z,26.95
2022-08-19T13:24:11.515Z,28.02
2022-08-19T13:31:35.567Z,26.45
2022-08-19T13:38:40.184Z,25.85
2022-08-19T13:45:42.517Z,25.80
2022-08-19T13:52:46.115Z,24.63
2022-08-19T13:59:48.332Z,24.25
2022-08-19T14:06:50.653Z,24.67
2022-08-19T14:13:54.569Z,24.58
2022-08-19T14:20:57.639Z,24.63
2022-08-19T14:28:01.299Z,23.27
2022-08-19T14:35:05.523Z,23.10
2022-08-19T14:42:11.235Z,23.42
2022-08-19T14:49:13.827Z,23.90
2022-08-19T14:56:18.491Z,24.48
2022-08-19T15:03:20.703Z,23.63
2022-08-19T15:10:24.319Z,25.35
2022-08-19T15:17:43.739Z,24.48
2022-08-19T15:24:48.366Z,25.25
2022-08-19T15:31:51.720Z,24.35
2022-08-19T15:38:55.492Z,24.25
2022-08-19T15:45:57.718Z,27.25
2022-08-19T15:53:03.152Z,27.92
2022-08-19T16:00:26.842Z,30.38
2022-08-19T16:07:29.333Z,29.58
2022-08-19T16:14:32.686Z,31.15
2022-08-19T16:21:37.268Z,31.05
2022-08-19T16:28:40.244Z,31.45
2022-08-19T16:35:42.812Z,29.60
2022-08-19T16:42:46.521Z,29.00
2022-08-19T16:49:54.472Z,28.45
2022-08-19T16:56:57.570Z,29.85
2022-08-19T17:04:01.144Z,33.35
2022-08-19T17:11:17.719Z,31.77
2022-08-19T17:18:23.190Z,31.97
2022-08-19T17:25:30.400Z,31.65
2022-08-19T17:32:34.772Z,34.78
2022-08-19T17:39:40.009Z,35.72
2022-08-19T17:46:46.540Z,34.80
2022-08-19T17:53:48.965Z,32.72
2022-08-19T18:00:54.073Z,29.70
2022-08-19T18:08:01.382Z,30.00
2022-08-19T18:15:04.545Z,27.67
2022-08-19T18:22:06.777Z,29.55
2022-08-19T18:29:10.477Z,28.52
2022-08-19T18:36:13.457Z,29.02
2022-08-19T18:43:27.616Z,28.27
2022-08-19T18:50:31.202Z,28.88
2022-08-19T18:57:33.835Z,28.08
2022-08-19T19:04:37.902Z,28.77
2022-08-19T19:11:45.707Z,28.17
2022-08-19T19:18:52.242Z,27.67
2022-08-19T19:25:54.584Z,26.83
2022-08-19T19:33:00.228Z,27.48
2022-08-19T19:40:04.337Z,26.95
2022-08-19T19:47:09.641Z,26.23
2022-08-19T19:54:17.861Z,27.35
2022-08-19T20:01:24.880Z,28.95
2022-08-19T20:08:47.414Z,28.92
2022-08-19T20:15:51.071Z,29.98
2022-08-19T20:22:53.856Z,29.17
2022-08-19T20:29:57.225Z,31.10
2022-08-19T20:37:00.789Z,29.90
2022-08-19T20:44:04.616Z,28.98
2022-08-19T20:51:06.848Z,27.33
2022-08-19T20:58:11.969Z,27.75
2022-08-19T21:05:14.743Z,26.58
2022-08-19T21:12:17.728Z,24.92
2022-08-19T21:19:24.136Z,26.38
2022-08-19T21:26:26.664Z,28.52
2022-08-19T21:33:32.236Z,26.70
2022-08-19T21:40:36.321Z,26.80
2022-08-19T21:47:38.584Z,24.83
2022-08-19T21:54:42.853Z,22.83
2022-08-19T22:01:51.508Z,20.42
2022-08-19T22:08:58.529Z,19.95
2022-08-19T22:16:00.861Z,17.88
2022-08-19T22:23:05.887Z,15.85
2022-08-19T22:30:10.086Z,15.70
2022-08-19T22:37:14.579Z,13.75
2022-08-19T22:44:18.145Z,13.70
2022-08-19T22:51:40.009Z,13.05
2022-08-19T22:58:42.405Z,13.13
2022-08-19T23:05:47.122Z,12.55
2022-08-19T23:12:54.400Z,12.90
2022-08-19T23:19:56.714Z,12.35
2022-08-19T23:27:18.879Z,12.45
2022-08-19T23:34:21.232Z,12.65
2022-08-19T23:41:23.548Z,12.02
2022-08-19T23:48:28.426Z,13.00
2022-08-19T23:55:32.544Z,12.30
